| time (UTC) | temp C | wind direction | speed KPH | gust KPH | rain 1hr cm | rain 24hr cm | rain mn cm | humidity % | barometer mb |
| 20260502190035 | -17 | 134 | 0.0 | 8.0 | 0.00 | 0.00 | 0.00 | 63 | 1015.6 |
| 20260502185526 | -17 | 100 | 0.0 | 8.0 | 0.00 | 0.00 | 0.00 | 63 | 1015.5 |
| 20260502185025 | -17 | 293 | 0.0 | 8.0 | 0.00 | 0.00 | 0.00 | 64 | 1015.6 |
| 20260502184535 | -17 | 309 | 3.2 | 8.0 | 0.00 | 0.00 | 0.00 | 63 | 1015.7 |
| 20260502184025 | -17 | 275 | 0.0 | 6.4 | 0.00 | 0.00 | 0.00 | 64 | 1015.9 |
| 20260502183525 | -17 | 70 | 0.0 | 9.7 | 0.00 | 0.00 | 0.00 | 65 | 1016.1 |
| 20260502183030 | -17 | 72 | 1.6 | 9.7 | 0.00 | 0.00 | 0.00 | 64 | 1016.3 |
| 20260502182527 | -17 | 304 | 0.0 | 8.0 | 0.00 | 0.00 | 0.00 | 66 | 1016.2 |
| 20260502182025 | -17 | 110 | 1.6 | 8.0 | 0.00 | 0.00 | 0.00 | 67 | 1016.3 |
| 20260502181523 | -17 | 45 | 0.0 | 6.4 | 0.00 | 0.00 | 0.00 | 67 | 1016.6 |
| 20260502181022 | -17 | 102 | 0.0 | 4.8 | 0.00 | 0.00 | 0.00 | 68 | 1016.5 |
| 20260502180524 | -17 | 127 | 0.0 | 9.7 | 0.00 | 0.00 | 0.00 | 71 | 1016.5 |
| 20260502170503 | -17 | 95 | 3.2 | 12.9 | 0.00 | 0.00 | 0.00 | 74 | 1017.2 |
| 20260502164056 | -17 | 113 | 1.6 | 11.3 | 0.00 | 0.00 | 0.00 | 69 | 1017.6 |
| 20260502163554 | -17 | 134 | 1.6 | 11.3 | 0.00 | 0.00 | 0.00 | 68 | 1017.6 |
| 20260502163056 | -17 | 41 | 3.2 | 11.3 | 0.00 | 0.00 | 0.00 | 66 | 1017.6 |
| 20260502162552 | -17 | 105 | 1.6 | 12.9 | 0.00 | 0.00 | 0.00 | 64 | 1017.7 |
| 20260502162050 | -17 | 116 | 4.8 | 12.9 | 0.00 | 0.00 | 0.00 | 60 | 1017.6 |
| 20260502161559 | -17 | 117 | 1.6 | 11.3 | 0.00 | 0.00 | 0.00 | 61 | 1017.6 |
| 20260502161050 | -17 | 107 | 0.0 | 11.3 | 0.00 | 0.00 | 0.00 | 61 | 1017.6 |
| 20260502160545 | -17 | 104 | 1.6 | 11.3 | 0.00 | 0.00 | 0.00 | 59 | 1017.6 |
| 20260502152035 | -17 | 82 | 0.0 | 8.0 | 0.00 | 0.00 | 0.00 | 62 | 1017.7 |
| 20260502151534 | -17 | 76 | 0.0 | 8.0 | 0.00 | 0.00 | 0.00 | 63 | 1017.8 |
| 20260502151030 | -17 | 82 | 0.0 | 8.0 | 0.00 | 0.00 | 0.00 | 63 | 1017.8 |
| 20260502150529 | -17 | 83 | 0.0 | 3.2 | 0.00 | 0.00 | 0.00 | 66 | 1017.8 |
| 20260502130553 | -17 | 0.0 | 0.0 | 0.00 | 0.00 | 0.00 | 1017.0 | ||
| 20260502123545 | -17 | 0.0 | 0.0 | 0.00 | 0.00 | 0.00 | 1016.8 | ||
| 20260502123043 | -17 | 0.0 | 0.0 | 0.00 | 0.00 | 0.00 | 1016.8 | ||
| 20260502122542 | -17 | 0.0 | 0.0 | 0.00 | 0.00 | 0.00 | 1016.7 | ||
| 20260502122041 | -17 | 0.0 | 0.0 | 0.00 | 0.00 | 0.00 | 1016.7 | ||
| 20260502121547 | -17 | 0.0 | 0.0 | 0.00 | 0.00 | 0.00 | 1016.6 | ||
| 20260502121039 | -17 | 0.0 | 0.0 | 0.00 | 0.00 | 0.00 | 1016.6 | ||
| 20260502120537 | -17 | 0.0 | 0.0 | 0.00 | 0.00 | 0.00 | 1016.6 | ||
| 20260502115533 | -17 | 0.0 | 0.0 | 0.00 | 0.00 | 0.00 | 1016.5 | ||
| 20260502115033 | -17 | 0.0 | 0.0 | 0.00 | 0.00 | 0.00 | 1016.5 | ||
| 20260502114531 | -17 | 0.0 | 0.0 | 0.00 | 0.00 | 0.00 | 1016.5 | ||
| 20260502114029 | -17 | 0.0 | 0.0 | 0.00 | 0.00 | 0.00 | 1016.5 | ||
| 20260502113527 | -17 | 0.0 | 0.0 | 0.00 | 0.00 | 0.00 | 1016.5 | ||
| 20260502113026 | -17 | 0.0 | 0.0 | 0.00 | 0.00 | 0.00 | 1016.4 | ||
| 20260502112528 | -17 | 0.0 | 0.0 | 0.00 | 0.00 | 0.00 | 1016.3 | ||
| 20260502112023 | -17 | 0.0 | 0.0 | 0.00 | 0.00 | 0.00 | 1016.2 | ||
| 20260502111521 | -17 | 0.0 | 0.0 | 0.00 | 0.00 | 0.00 | 1016.2 | ||
| 20260502111020 | -17 | 0.0 | 0.0 | 0.00 | 0.00 | 0.00 | 1016.1 | ||
| 20260502110519 | -17 | 0.0 | 0.0 | 0.00 | 0.00 | 0.00 | 1016.1 | ||
| 20260502110018 | -17 | 0.0 | 0.0 | 0.00 | 0.00 | 0.00 | 1016.1 | ||
| 20260502105516 | -17 | 0.0 | 0.0 | 0.00 | 0.00 | 0.00 | 1016.0 | ||
| 20260502105015 | -17 | 0.0 | 0.0 | 0.00 | 0.00 | 0.00 | 1016.0 | ||
| 20260502104512 | -17 | 0.0 | 0.0 | 0.00 | 0.00 | 0.00 | 1015.9 | ||
| 20260502104011 | -17 | 0.0 | 0.0 | 0.00 | 0.00 | 0.00 | 1015.9 | ||
| 20260502103509 | -17 | 0.0 | 0.0 | 0.00 | 0.00 | 0.00 | 1016.0 | ||
| 20260502103008 | -17 | 0.0 | 0.0 | 0.00 | 0.00 | 0.00 | 1015.9 | ||
| 20260502102506 | -17 | 0.0 | 0.0 | 0.00 | 0.00 | 0.00 | 1015.8 | ||
| 20260502102006 | -17 | 0.0 | 0.0 | 0.00 | 0.00 | 0.00 | 1015.9 | ||
| 20260502101504 | -17 | 0.0 | 0.0 | 0.00 | 0.00 | 0.00 | 1015.9 | ||
| 20260502101002 | -17 | 0.0 | 0.0 | 0.00 | 0.00 | 0.00 | 1015.9 | ||
| 20260502100503 | -17 | 0.0 | 0.0 | 0.00 | 0.00 | 0.00 | 1015.9 | ||
| 20260502091045 | -17 | 0.0 | 0.0 | 0.00 | 0.00 | 0.00 | 1015.7 | ||
| 20260502090546 | -17 | 0.0 | 0.0 | 0.00 | 0.00 | 0.00 | 1015.7 | ||
| 20260502071513 | -17 | 11 | 0.0 | 0.0 | 0.00 | 0.00 | 0.00 | 100 | 1016.7 |
| 20260502071012 | -17 | 11 | 0.0 | 0.0 | 0.00 | 0.00 | 0.00 | 100 | 1016.8 |
| 20260502070510 | -17 | 11 | 0.0 | 0.0 | 0.00 | 0.00 | 0.00 | 100 | 1016.8 |
| 20260502070009 | -17 | 11 | 0.0 | 0.0 | 0.00 | 0.00 | 0.00 | 100 | 1016.9 |
| 20260502065508 | -17 | 11 | 0.0 | 0.0 | 0.00 | 0.00 | 0.00 | 100 | 1016.9 |
| 20260502065007 | -17 | 11 | 0.0 | 0.0 | 0.00 | 0.00 | 0.00 | 100 | 1016.8 |
| 20260502064505 | -17 | 11 | 0.0 | 0.0 | 0.00 | 0.00 | 0.00 | 100 | 1016.9 |
| 20260502064007 | -17 | 11 | 0.0 | 0.0 | 0.00 | 0.00 | 0.00 | 100 | 1017.0 |
| 20260502063502 | -17 | 11 | 0.0 | 0.0 | 0.00 | 0.00 | 0.00 | 100 | 1017.1 |
| 20260502063100 | -17 | 11 | 0.0 | 0.0 | 0.00 | 0.00 | 0.00 | 100 | 1017.2 |
| 20260502062559 | -17 | 11 | 0.0 | 0.0 | 0.00 | 0.00 | 0.00 | 100 | 1017.2 |
| 20260502062057 | -17 | 11 | 0.0 | 0.0 | 0.00 | 0.00 | 0.00 | 100 | 1017.2 |
| 20260502061556 | -17 | 11 | 0.0 | 0.0 | 0.00 | 0.00 | 0.00 | 100 | 1017.2 |
| 20260502061054 | -17 | 11 | 0.0 | 0.0 | 0.00 | 0.00 | 0.00 | 100 | 1017.3 |
| 20260502060557 | -17 | 11 | 0.0 | 0.0 | 0.00 | 0.00 | 0.00 | 100 | 1017.3 |
| 20260502060052 | -17 | 11 | 0.0 | 0.0 | 0.00 | 0.00 | 0.00 | 100 | 1017.3 |
| 20260502055550 | -17 | 11 | 0.0 | 0.0 | 0.00 | 0.00 | 0.00 | 100 | 1017.2 |
| 20260502055049 | -17 | 11 | 0.0 | 0.0 | 0.00 | 0.00 | 0.00 | 100 | 1017.3 |
| 20260502054548 | -17 | 11 | 0.0 | 0.0 | 0.00 | 0.00 | 0.00 | 100 | 1017.3 |
| 20260502054045 | -17 | 11 | 0.0 | 0.0 | 0.00 | 0.00 | 0.00 | 100 | 1017.3 |
| 20260502053544 | -17 | 11 | 0.0 | 0.0 | 0.00 | 0.00 | 0.00 | 100 | 1017.3 |
| 20260502053046 | -17 | 11 | 0.0 | 0.0 | 0.00 | 0.00 | 0.00 | 100 | 1017.4 |
| 20260502052541 | -17 | 11 | 0.0 | 0.0 | 0.00 | 0.00 | 0.00 | 100 | 1017.5 |
| 20260502052040 | -17 | 11 | 0.0 | 0.0 | 0.00 | 0.00 | 0.00 | 100 | 1017.5 |
| 20260502051544 | -17 | 11 | 0.0 | 0.0 | 0.00 | 0.00 | 0.00 | 100 | 1017.5 |
| 20260502051037 | -17 | 11 | 0.0 | 0.0 | 0.00 | 0.00 | 0.00 | 100 | 1017.5 |
| 20260502050536 | -17 | 11 | 0.0 | 0.0 | 0.00 | 0.00 | 0.00 | 100 | 1017.7 |
| 20260502050038 | -17 | 11 | 0.0 | 0.0 | 0.00 | 0.00 | 0.00 | 100 | 1017.6 |
| 20260502045532 | -17 | 11 | 0.0 | 0.0 | 0.00 | 0.00 | 0.00 | 100 | 1017.6 |
| 20260502045036 | -17 | 11 | 0.0 | 0.0 | 0.00 | 0.00 | 0.00 | 100 | 1017.7 |
| 20260502044531 | -17 | 11 | 0.0 | 0.0 | 0.00 | 0.00 | 0.00 | 100 | 1017.7 |
| 20260502044031 | -17 | 11 | 0.0 | 0.0 | 0.00 | 0.00 | 0.00 | 100 | 1017.8 |
| 20260502043527 | -17 | 11 | 0.0 | 0.0 | 0.00 | 0.00 | 0.00 | 100 | 1017.9 |
| 20260502043025 | -17 | 11 | 0.0 | 0.0 | 0.00 | 0.00 | 0.00 | 100 | 1017.9 |
| 20260502042524 | -17 | 11 | 0.0 | 0.0 | 0.00 | 0.00 | 0.00 | 100 | 1018.0 |
| 20260502042024 | -17 | 11 | 0.0 | 0.0 | 0.00 | 0.00 | 0.00 | 100 | 1018.0 |
| 20260502041524 | -17 | 11 | 0.0 | 0.0 | 0.00 | 0.00 | 0.00 | 100 | 1018.0 |
| 20260502041020 | -17 | 11 | 0.0 | 0.0 | 0.00 | 0.00 | 0.00 | 100 | 1018.1 |
| 20260502040518 | -17 | 11 | 0.0 | 0.0 | 0.00 | 0.00 | 0.00 | 100 | 1018.1 |
| 20260502040016 | -17 | 11 | 0.0 | 0.0 | 0.00 | 0.00 | 0.00 | 100 | 1018.1 |
| 20260502035515 | -17 | 11 | 0.0 | 0.0 | 0.00 | 0.00 | 0.00 | 100 | 1018.0 |
| 20260502035014 | -17 | 11 | 0.0 | 0.0 | 0.00 | 0.00 | 0.00 | 100 | 1017.9 |
| 20260502034512 | -17 | 11 | 0.0 | 0.0 | 0.00 | 0.00 | 0.00 | 100 | 1017.9 |
| 20260502034011 | -17 | 11 | 0.0 | 0.0 | 0.00 | 0.00 | 0.00 | 100 | 1017.9 |
| 20260502033513 | -17 | 11 | 0.0 | 0.0 | 0.00 | 0.00 | 0.00 | 100 | 1017.8 |
| 20260502033007 | -17 | 11 | 0.0 | 0.0 | 0.00 | 0.00 | 0.00 | 100 | 1017.7 |
| 20260502032509 | -17 | 11 | 0.0 | 0.0 | 0.00 | 0.00 | 0.00 | 100 | 1017.5 |
| 20260502032004 | -17 | 11 | 0.0 | 0.0 | 0.00 | 0.00 | 0.00 | 100 | 1017.4 |
| 20260502031503 | -17 | 11 | 0.0 | 0.0 | 0.00 | 0.00 | 0.00 | 100 | 1017.3 |
| 20260502031003 | -17 | 11 | 0.0 | 0.0 | 0.00 | 0.00 | 0.00 | 100 | 1017.2 |
| 20260502030601 | -17 | 11 | 0.0 | 0.0 | 0.00 | 0.00 | 0.00 | 100 | 1017.1 |
| 20260502030100 | -17 | 11 | 0.0 | 0.0 | 0.00 | 0.00 | 0.00 | 100 | 1017.0 |
| 20260502025557 | -17 | 11 | 0.0 | 0.0 | 0.00 | 0.00 | 0.00 | 100 | 1017.0 |
| 20260502025056 | -17 | 11 | 0.0 | 0.0 | 0.00 | 0.00 | 0.00 | 100 | 1016.8 |
| 20260502024556 | -17 | 11 | 0.0 | 0.0 | 0.00 | 0.00 | 0.00 | 100 | 1016.7 |
| 20260502024053 | -17 | 11 | 0.0 | 0.0 | 0.00 | 0.00 | 0.00 | 100 | 1016.7 |
| 20260502023554 | -17 | 11 | 0.0 | 0.0 | 0.00 | 0.00 | 0.00 | 100 | 1016.5 |
| 20260502023054 | -17 | 11 | 0.0 | 0.0 | 0.00 | 0.00 | 0.00 | 100 | 1016.4 |
| 20260502022550 | -17 | 11 | 0.0 | 0.0 | 0.00 | 0.00 | 0.00 | 100 | 1016.3 |
| 20260502022049 | -17 | 11 | 0.0 | 0.0 | 0.00 | 0.00 | 0.00 | 100 | 1016.2 |
| 20260502021546 | -17 | 11 | 0.0 | 0.0 | 0.00 | 0.00 | 0.00 | 100 | 1016.1 |
| 20260502021045 | -17 | 11 | 0.0 | 0.0 | 0.00 | 0.00 | 0.00 | 100 | 1016.0 |
| 20260502020543 | -17 | 11 | 0.0 | 0.0 | 0.00 | 0.00 | 0.00 | 100 | 1016.0 |
| 20260502020045 | -17 | 11 | 0.0 | 0.0 | 0.00 | 0.00 | 0.00 | 100 | 1015.8 |
| 20260502015540 | -17 | 11 | 0.0 | 0.0 | 0.00 | 0.00 | 0.00 | 100 | 1015.7 |
| 20260502015038 | -17 | 11 | 0.0 | 0.0 | 0.00 | 0.00 | 0.00 | 100 | 1015.7 |
| 20260502014538 | -17 | 11 | 0.0 | 0.0 | 0.00 | 0.00 | 0.00 | 100 | 1015.6 |
| 20260502014035 | -17 | 11 | 0.0 | 0.0 | 0.00 | 0.00 | 0.00 | 100 | 1015.4 |
| 20260502013534 | -17 | 11 | 0.0 | 0.0 | 0.00 | 0.00 | 0.00 | 100 | 1015.3 |
| 20260502013034 | -17 | 11 | 0.0 | 0.0 | 0.00 | 0.00 | 0.00 | 100 | 1015.2 |
| 20260502012531 | -17 | 11 | 0.0 | 0.0 | 0.00 | 0.00 | 0.00 | 100 | 1015.1 |
| 20260502012030 | -17 | 11 | 0.0 | 1.6 | 0.00 | 0.00 | 0.00 | 100 | 1015.0 |
| 20260502011528 | -17 | 11 | 0.0 | 1.6 | 0.00 | 0.00 | 0.00 | 100 | 1014.8 |
| 20260502011026 | -17 | 26 | 0.0 | 0.0 | 0.00 | 0.00 | 0.00 | 100 | 1014.8 |
| 20260502010525 | -17 | 26 | 0.0 | 0.0 | 0.00 | 0.00 | 0.00 | 100 | 1014.7 |
| 20260502010025 | -17 | 26 | 0.0 | 0.0 | 0.00 | 0.00 | 0.00 | 100 | 1014.6 |
| 20260502005522 | -17 | 44 | 0.0 | 1.6 | 0.00 | 0.00 | 0.00 | 100 | 1014.5 |
| 20260502005023 | -17 | 49 | 0.0 | 3.2 | 0.00 | 0.00 | 0.00 | 100 | 1014.5 |
| 20260502004520 | -17 | 45 | 0.0 | 3.2 | 0.00 | 0.00 | 0.00 | 100 | 1014.4 |
| 20260502004021 | -17 | 311 | 0.0 | 0.0 | 0.00 | 0.00 | 0.00 | 100 | 1014.3 |
| 20260502003517 | -17 | 311 | 0.0 | 0.0 | 0.00 | 0.00 | 0.00 | 100 | 1014.2 |
| 20260502003015 | -17 | 311 | 0.0 | 3.2 | 0.00 | 0.00 | 0.00 | 100 | 1014.1 |
| 20260502002519 | -17 | 311 | 0.0 | 3.2 | 0.00 | 0.00 | 0.00 | 100 | 1014.0 |
| 20260502002014 | -17 | 268 | 0.0 | 9.7 | 0.00 | 0.00 | 0.00 | 100 | 1013.8 |
| 20260502001511 | -17 | 37 | 0.0 | 6.4 | 0.00 | 0.00 | 0.00 | 100 | 1013.6 |
| 20260502001010 | -17 | 318 | 1.6 | 6.4 | 0.00 | 0.00 | 0.00 | 100 | 1013.7 |
| 20260502000508 | -17 | 229 | 0.0 | 1.6 | 0.00 | 0.00 | 0.00 | 100 | 1013.7 |
| 20260502000006 | -17 | 202 | 0.0 | 1.6 | 0.00 | 0.00 | 0.00 | 100 | 1013.7 |
| 20260501235505 | -17 | 200 | 0.0 | 3.2 | 0.00 | 0.00 | 0.00 | 100 | 1013.6 |
| 20260501235003 | -17 | 283 | 0.0 | 4.8 | 0.00 | 0.00 | 0.00 | 100 | 1013.5 |
| 20260501234502 | -17 | 319 | 0.0 | 8.0 | 0.00 | 0.00 | 0.00 | 100 | 1013.4 |
| 20260501234101 | -17 | 84 | 1.6 | 8.0 | 0.00 | 0.00 | 0.00 | 100 | 1013.4 |
| 20260501233559 | -17 | 89 | 0.0 | 4.8 | 0.00 | 0.00 | 0.00 | 100 | 1013.2 |
| 20260501233108 | -17 | 297 | 0.0 | 1.6 | 0.00 | 0.00 | 0.00 | 100 | 1013.1 |
| 20260501232556 | -17 | 338 | 0.0 | 1.6 | 0.00 | 0.00 | 0.00 | 100 | 1012.9 |
| 20260501232056 | -17 | 18 | 0.0 | 9.7 | 0.00 | 0.00 | 0.00 | 100 | 1012.9 |
| 20260501231614 | -17 | 330 | 0.0 | 9.7 | 0.00 | 0.00 | 0.00 | 100 | 1012.8 |
| 20260501231052 | -17 | 335 | 0.0 | 4.8 | 0.00 | 0.00 | 0.00 | 100 | 1012.7 |
| 20260501230551 | -17 | 241 | 0.0 | 4.8 | 0.00 | 0.00 | 0.00 | 100 | 1012.7 |
| 20260501230050 | -17 | 77 | 0.0 | 3.2 | 0.00 | 0.00 | 0.00 | 100 | 1012.7 |
| 20260501225548 | -17 | 84 | 0.0 | 3.2 | 0.00 | 0.00 | 0.00 | 100 | 1012.4 |
| 20260501225048 | -17 | 122 | 0.0 | 3.2 | 0.00 | 0.00 | 0.00 | 100 | 1012.5 |
| 20260501224547 | -17 | 314 | 0.0 | 4.8 | 0.00 | 0.00 | 0.00 | 100 | 1012.4 |
| 20260501224047 | -17 | 304 | 0.0 | 8.0 | 0.00 | 0.00 | 0.00 | 100 | 1012.4 |
| 20260501223542 | -17 | 73 | 0.0 | 8.0 | 0.00 | 0.00 | 0.00 | 100 | 1012.4 |
| 20260501223107 | -17 | 241 | 0.0 | 11.3 | 0.00 | 0.00 | 0.00 | 100 | 1012.4 |
| 20260501222542 | -17 | 122 | 0.0 | 8.0 | 0.00 | 0.00 | 0.00 | 99 | 1012.5 |
| 20260501222038 | -17 | 50 | 0.0 | 12.9 | 0.00 | 0.00 | 0.00 | 99 | 1012.6 |
| 20260501221536 | -17 | 63 | 3.2 | 12.9 | 0.00 | 0.00 | 0.00 | 97 | 1012.5 |
| 20260501221035 | -17 | 102 | 1.6 | 6.4 | 0.00 | 0.00 | 0.00 | 97 | 1012.4 |
| 20260501220533 | -17 | 57 | 0.0 | 6.4 | 0.00 | 0.00 | 0.00 | 96 | 1012.5 |
| 20260501220032 | -17 | 278 | 0.0 | 9.7 | 0.00 | 0.00 | 0.00 | 94 | 1012.5 |
| 20260501215531 | -17 | 341 | 1.6 | 9.7 | 0.00 | 0.00 | 0.00 | 92 | 1012.6 |
| 20260501215030 | -17 | 98 | 3.2 | 9.7 | 0.00 | 0.00 | 0.00 | 90 | 1012.6 |
| 20260501214528 | -17 | 89 | 0.0 | 9.7 | 0.00 | 0.00 | 0.00 | 88 | 1012.4 |
| 20260501214025 | -17 | 340 | 1.6 | 9.7 | 0.00 | 0.00 | 0.00 | 86 | 1012.5 |
| 20260501213526 | -17 | 36 | 1.6 | 9.7 | 0.00 | 0.00 | 0.00 | 86 | 1012.5 |
| 20260501213023 | -17 | 70 | 0.0 | 9.7 | 0.00 | 0.00 | 0.00 | 84 | 1012.7 |
| 20260501212522 | -17 | 2 | 0.0 | 11.3 | 0.00 | 0.00 | 0.00 | 82 | 1012.7 |
| 20260501212020 | -17 | 306 | 1.6 | 11.3 | 0.00 | 0.00 | 0.00 | 80 | 1012.8 |
| 20260501211519 | -17 | 60 | 1.6 | 9.7 | 0.00 | 0.00 | 0.00 | 79 | 1012.6 |
| 20260501211019 | -17 | 316 | 1.6 | 6.4 | 0.00 | 0.00 | 0.00 | 77 | 1012.6 |
| 20260501210516 | -17 | 335 | 0.0 | 11.3 | 0.00 | 0.00 | 0.00 | 77 | 1012.7 |
| 20260501210015 | -17 | 303 | 3.2 | 8.0 | 0.00 | 0.00 | 0.00 | 77 | 1012.8 |
| 20260501205513 | -17 | 188 | 1.6 | 11.3 | 0.00 | 0.00 | 0.00 | 76 | 1012.8 |
| 20260501205012 | -17 | 281 | 1.6 | 11.3 | 0.00 | 0.00 | 0.00 | 73 | 1012.7 |
| 20260501204518 | -17 | 314 | 0.0 | 8.0 | 0.00 | 0.00 | 0.00 | 72 | 1012.7 |
| 20260501204009 | -17 | 283 | 3.2 | 8.0 | 0.00 | 0.00 | 0.00 | 70 | 1012.9 |
| 20260501203507 | -17 | 285 | 1.6 | 8.0 | 0.00 | 0.00 | 0.00 | 71 | 1013.1 |
| 20260501203006 | -17 | 328 | 0.0 | 8.0 | 0.00 | 0.00 | 0.00 | 72 | 1013.0 |
| 20260501202504 | -17 | 105 | 1.6 | 8.0 | 0.00 | 0.00 | 0.00 | 72 | 1013.0 |
| 20260501202005 | -17 | 122 | 3.2 | 8.0 | 0.00 | 0.00 | 0.00 | 74 | 1013.2 |
| 20260501201502 | -17 | 283 | 1.6 | 6.4 | 0.00 | 0.00 | 0.00 | 73 | 1013.4 |
| 20260501201101 | -17 | 353 | 0.0 | 6.4 | 0.00 | 0.00 | 0.00 | 75 | 1013.4 |
| 20260501200600 | -17 | 304 | 1.6 | 4.8 | 0.00 | 0.00 | 0.00 | 73 | 1013.4 |
| 20260501200057 | -17 | 337 | 1.6 | 4.8 | 0.00 | 0.00 | 0.00 | 73 | 1013.6 |
| 20260501195556 | -17 | 315 | 0.0 | 3.2 | 0.00 | 0.00 | 0.00 | 73 | 1013.6 |
| 20260501195057 | -17 | 52 | 0.0 | 8.0 | 0.00 | 0.00 | 0.00 | 72 | 1013.7 |
| 20260501194555 | -17 | 335 | 1.6 | 8.0 | 0.00 | 0.00 | 0.00 | 73 | 1013.9 |
| 20260501194052 | -17 | 354 | 1.6 | 6.4 | 0.00 | 0.00 | 0.00 | 75 | 1013.9 |
| 20260501193549 | -17 | 264 | 0.0 | 4.8 | 0.00 | 0.00 | 0.00 | 77 | 1013.9 |
| 20260501193051 | -17 | 7 | 0.0 | 3.2 | 0.00 | 0.00 | 0.00 | 76 | 1013.9 |
| 20260501192551 | -17 | 266 | 0.0 | 11.3 | 0.00 | 0.00 | 0.00 | 73 | 1014.0 |
| 20260501192045 | -17 | 82 | 3.2 | 11.3 | 0.00 | 0.00 | 0.00 | 72 | 1014.0 |
| 20260501191544 | -17 | 98 | 0.0 | 6.4 | 0.00 | 0.00 | 0.00 | 72 | 1014.0 |
| 20260501191045 | -17 | 77 | 1.6 | 6.4 | 0.00 | 0.00 | 0.00 | 71 | 1014.3 |
| 20260501190541 | -17 | 119 | 0.0 | 4.8 | 0.00 | 0.00 | 0.00 | 70 | 1014.3 |